ADDS METAR Data INFO
IDs: Format: Raw Decoded Include TAF

Data at: 0213 UTC 18 Jan 2018

KAUO 180156Z AUTO 34012KT 10SM CLR M06/M12 A3045 RMK AO2 SLP337 T10611122 FZRANO
KAUO 180056Z AUTO 33010G19KT 10SM CLR M06/M12 A3045 RMK AO2 SLP337 T10561122 FZRANO
KAUO 172356Z AUTO 32009KT 10SM CLR M06/M12 A3046 RMK AO2 SLP339 60000 T10561122 11022 21056 51012 FZRANO
KAUO 172256Z AUTO 33013KT 10SM CLR M04/M12 A3044 RMK AO2 SLP337 T10441122 FZRANO
KAUO 172156Z AUTO 34012KT 10SM CLR M03/M12 A3044 RMK AO2 SLP335 T10281117 FZRANO
KAUO 172056Z AUTO 33015KT 10SM CLR M03/M12 A3042 RMK AO2 SLP327 60000 T10281122 56014 FZRANO
KAUO 171956Z AUTO 33011KT 10SM CLR M04/M13 A3043 RMK AO2 SNB05E48 SLP331 P0000 T10391128 FZRANO
KAUO 171856Z AUTO 32015KT 10SM CLR M04/M13 A3044 RMK AO2 SNB10E24 SLP332 P0000 T10441128 FZRANO
KAUO 171756Z AUTO 33015KT 9SM CLR M06/M14 A3046 RMK AO2 SNE53 SLP342 P0000 60000 T10561139 11056 21100 58004 FZRANO
KAUO 171656Z AUTO 31012KT 9SM -SN CLR M07/M14 A3049 RMK AO2 SLP352 P0000 T10671139 FZRANO
KAUO 171556Z AUTO 31014KT 9SM -SN CLR M08/M14 A3050 RMK AO2 SLP354 P0000 T10831139 FZRANO
KAUO 171456Z AUTO 32009KT 9SM -SN CLR M09/M14 A3047 RMK AO2 SLP345 P0000 60000 T10891139 53019 FZRANO
KAUO 171356Z AUTO 31013KT 9SM -SN CLR M09/M13 A3045 RMK AO2 SNB47 SLP337 P0000 T10941133 FZRANO
KAUO 171256Z AUTO 33011KT 10SM CLR M10/M12 A3043 RMK AO2 SLP329 T11001122 FZRANO
KAUO 171156Z AUTO 32008KT 10SM SCT013 BKN080 M08/M11 A3042 RMK AO2 SNE27 SLP327 P0000 60012 70013 T10781111 11033 21078 53005 FZRANO
KAUO 171153Z AUTO 33008KT 10SM SCT013 OVC080 M08/M11 A3042 RMK AO2 SNE27 P0000 FZRANO
KAUO 171110Z AUTO 32012KT 9SM -SN BKN011 BKN016 OVC060 M07/M09 A3040 RMK AO2 P0000 FZRANO
KAUO 171056Z AUTO 33011KT 7SM -SN SCT006 SCT011 BKN016 M07/M08 A3039 RMK AO2 SLP316 P0003 T10721083 FZRANO
KAUO 171050Z AUTO 33009KT 3SM -SN BR BKN006 BKN014 M07/M08 A3040 RMK AO2 CIG 005V009 P0002 FZRANO
KAUO 171043Z AUTO 33009KT 1 1/4SM -SN BR BKN006 OVC014 M07/M08 A3040 RMK AO2 CIG 005V009 P0001 FZRANO
KAUO 171019Z AUTO 32007KT 3/4SM -SN BR BKN006 OVC014 M07/M08 A3040 RMK AO2 CIG 006V011 P0001 FZRANO
KAUO 171010Z AUTO 34007KT 3/4SM -SN BR SCT008 BKN012 OVC017 M07/M08 A3040 RMK AO2 P0001 FZRANO
KAUO 171008Z AUTO 34008KT 1SM -SN BR BKN008 OVC015 M07/M08 A3040 RMK AO2 CIG 006V011 P0001 FZRANO
KAUO 171003Z AUTO 33008KT 1 1/2SM -SN BR BKN012 OVC017 M07/M08 A3040 RMK AO2 P0001 FZRANO
KAUO 171001Z AUTO 33009KT 2SM -SN BR FEW008 OVC015 M07/M08 A3040 RMK AO2 P0001 FZRANO
KAUO 170956Z AUTO 33009KT 2SM -SN BR FEW010 OVC015 M07/M08 A3040 RMK AO2 SLP319 P0001 T10671078 FZRANO
KAUO 170933Z AUTO 33011KT 1 3/4SM -SN BR OVC017 M06/M08 A3039 RMK AO2 P0001 FZRANO
KAUO 170905Z AUTO 33010KT 2SM -SN BR SCT008 OVC017 M06/M07 A3040 RMK AO2 P0000 FZRANO
KAUO 170856Z AUTO 33009KT 2 1/2SM -SN BR SCT010 OVC020 M06/M07 A3040 RMK AO2 SLP323 P0002 60008 T10611072 53004 FZRANO
KAUO 170840Z AUTO 32009KT 2SM -SN BR SCT008 BKN013 OVC020 M06/M07 A3040 RMK AO2 P0001 FZRANO
KAUO 170831Z AUTO 34008KT 1 3/4SM -SN BR FEW007 SCT013 OVC020 M06/M07 A3040 RMK AO2 P0001 FZRANO
KAUO 170814Z AUTO 35010G18KT 2 1/2SM -SN BR SCT007 SCT011 OVC020 M05/M07 A3040 RMK AO2 P0001 FZRANO
KAUO 170756Z AUTO 34006KT 1 3/4SM -SN BR OVC007 M05/M06 A3040 RMK AO2 CIG 005V010 SLP320 P0002 T10501061 FZRANO
KAUO 170739Z AUTO 33007KT 1 3/4SM -SN BR OVC007 M04/M06 A3040 RMK AO2 P0002 FZRANO
KAUO 170703Z AUTO 35011KT 2 1/2SM -SN BR BKN007 BKN012 OVC021 M04/M05 A3039 RMK AO2 CIG 005V008 P0001 FZRANO
KAUO 170656Z AUTO 34012G16KT 1 3/4SM -SN BR BKN007 OVC012 M04/M05 A3039 RMK AO2 CIG 005V010 SLP319 P0004 T10391050 FZRANO
KAUO 170653Z AUTO 34009KT 1 1/2SM -SN BR BKN005 OVC012 M04/M05 A3039 RMK AO2 CIG 005V009 P0004 FZRANO
KAUO 170636Z AUTO 35011KT 1 3/4SM -SN BR BKN007 OVC011 M04/M05 A3039 RMK AO2 CIG 004V009 P0003 FZRANO
KAUO 170620Z AUTO 35009KT 1SM -SN BR FEW005 BKN009 BKN016 M04/M05 A3040 RMK AO2 CIG 008V012 P0003 FZRANO
KAUO 170603Z AUTO 36010KT 1 3/4SM -SN BR FEW009 BKN016 OVC025 M03/M05 A3040 RMK AO2 P0000 FZRANO
KAUO 170556Z AUTO 35008KT 2SM -SN BR FEW009 BKN018 OVC025 M03/M05 A3040 RMK AO2 SLP322 P0000 60001 T10331050 10033 21033 401061033 58005 FZRANO
KAUO 170531Z AUTO 35013KT 2SM -SN BR BKN009 BKN020 OVC030 M03/M04 A3040 RMK AO2 CIG 007V012 P0000 FZRANO
KAUO 170456Z AUTO 34010KT 3SM -SN BR OVC007 M03/M04 A3040 RMK AO2 CIG 005V011 SLP320 P0001 T10281039 FZRANO
KAUO 170445Z AUTO 33009KT 2 1/2SM -SN BR OVC007 M02/M04 A3041 RMK AO2 CIG 006V011 P0000 FZRANO
KAUO 170356Z AUTO 32008KT 3SM -SN BR BKN009 OVC040 M02/M03 A3042 RMK AO2 UPB03E37SNB18E30B37 CIG 007V011 SLP324 P0000 T10171028 FZRANO
KAUO 170353Z AUTO 32007KT 3SM -SN BR BKN009 OVC040 M02/M03 A3041 RMK AO2 UPB03E37SNB18E30B37 CIG 007V011 P0000 FZRANO
KAUO 170320Z AUTO 34010KT 9SM -SN BKN011 OVC036 M01/M03 A3041 RMK AO2 UPB03E18SNB18 CIG 009V014 P0000 FZRANO
KAUO 170256Z AUTO 34010KT 10SM OVC036 00/M03 A3041 RMK AO2 SLP324 60000 T00001028 51013 FZRANO
KAUO 170156Z AUTO 33010KT 10SM OVC036 01/M03 A3041 RMK AO2 SLP322 T00061033 FZRANO
KAUO 170056Z AUTO 31014G17KT 10SM OVC032 03/01 A3039 RMK AO2 RAE20UPB20E34 SLP316 P0000 T00280006
KAUO 170020Z AUTO 33009KT 7SM UP FEW016 BKN030 OVC036 03/01 A3038 RMK AO2 RAE20UPB20 P0000
KAUO 170005Z AUTO 32012KT 10SM SCT016 BKN028 OVC037 03/00 A3038 RMK AO2 RAE01 P0000
KAUO 162356Z AUTO 32011KT 10SM -RA BKN014 BKN028 OVC037 03/01 A3037 RMK AO2 SLP310 P0000 60000 T00330006 10100 20033 53001
KAUO 162339Z AUTO 32011KT 10SM -RA FEW007 OVC012 04/02 A3037 RMK AO2 P0000
KAUO 162316Z AUTO 31007KT 5SM -RA BR BKN007 BKN012 OVC031 05/04 A3036 RMK AO2 CIG 005V009 P0000
KAUO 162303Z AUTO 29004KT 4SM -RA BR FEW007 BKN014 OVC033 05/04 A3036 RMK AO2 P0000
KAUO 162256Z AUTO 29005KT 3SM -RA BR SCT013 BKN025 OVC033 06/04 A3036 RMK AO2 RAB42 SLP309 P0000 T00560039
KAUO 162156Z AUTO 30005KT 10SM BKN025 OVC034 07/03 A3037 RMK AO2 RAB15E30 SLP311 P0000 T00670028
KAUO 162056Z AUTO 29006KT 10SM OVC028 08/01 A3037 RMK AO2 SLP309 T00780011 55008
KAUO 162037Z AUTO 26008KT 10SM BKN028 OVC035 08/01 A3036 RMK AO2
KAUO 161956Z AUTO 27007KT 10SM SCT034 OVC044 09/00 A3036 RMK AO2 SLP310 T00890000
KAUO 161856Z AUTO 25006KT 10SM BKN047 OVC060 10/M01 A3037 RMK AO2 SLP313 T01001006
KAUO 161756Z AUTO 33006KT 10SM CLR 10/M01 A3039 RMK AO2 SLP319 T01001006 10106 20017 58014
KAUO 161656Z AUTO 24007KT 10SM CLR 08/M01 A3043 RMK AO2 SLP333 T00831011
KAUO 161556Z AUTO 21007KT 10SM CLR 07/M02 A3044 RMK AO2 SLP332 T00721017
KAUO 161456Z AUTO 16005KT 10SM CLR 05/M02 A3044 RMK AO2 SLP332 T00501022 52011